Wetter

Nordholz:

METAR:

2019/08/23 15:20 ETMN 231520Z 32005KT 9999 BKN300 23/14 Q1025 BLU+FCST CANCEL

TAF:

2019/08/23 11:31 TAF ETMN 231014Z 2311/2320 24007KT 9999 NSW BKN280 BECMG 2312/2314 35005KT 9999 NSW FEW150 BKN270

Wind EDXN:

23.08. 14:20z 290/06kt
23.08. 14:30z 280/07kt
23.08. 14:40z 280/04kt
23.08. 14:50z 280/04kt
23.08. 15:00z 270/03G07kt
23.08. 15:10z 280/06kt
23.08. 15:20z 310/07kt
23.08. 15:30z 310/05G09kt 270V340
23.08. 15:40z 330/08kt
23.08. 15:50z 310/08G11kt

Bremen:

METAR:

2019/08/23 15:20 EDDW 231520Z 31005KT 270V360 CAVOK 26/09 Q1025 NOSIG

TAF:

2019/08/23 12:27 TAF EDDW 231100Z 2312/2412 26005KT CAVOK BECMG 2314/2316 35005KT BECMG 2316/2318 07003KT BECMG 2406/2408 11008KT

Hamburg:

METAR:

2019/08/23 15:20 EDDH 231520Z 31007KT CAVOK 25/08 Q1025 NOSIG

TAF:

2019/08/23 12:27 TAF EDDH 231100Z 2312/2418 29006KT CAVOK BECMG 2315/2317 06003KT BECMG 2406/2410 10008KT

Hannover:

METAR:

2019/08/23 15:20 EDDV 231520Z VRB03KT CAVOK 28/08 Q1024 NOSIG

TAF:

2019/08/23 12:27 TAF EDDV 231100Z 2312/2412 05004KT CAVOK BECMG 2406/2408 11009KT

Wikipedia Artikel: METARTAF

Daten von Aviation Weather Center der NOAA, es kann keine Garantie für Aktualität und Richtigkeit der Daten übernommen werden.

Die Nutzung dieser Daten zur Flugplanung ist nicht zulässig!

Inoffizielle ATIS 🙂